sensor_id;sensor_type;location;lat;lon;timestamp;pressure;altitude;pressure_sealevel;temperature;humidity
12781;BME280;6454;43.304;24.344;2023-02-16T00:00:42;101802.88;;;-0.64;83.06
12781;BME280;6454;43.304;24.344;2023-02-16T00:03:11;101806.56;;;-0.65;82.88
12781;BME280;6454;43.304;24.344;2023-02-16T00:05:39;101564.63;;;-2.09;82.30
12781;BME280;6454;43.304;24.344;2023-02-16T00:08:06;101803.72;;;-0.63;82.23
12781;BME280;6454;43.304;24.344;2023-02-16T00:10:34;101806.91;;;-0.68;82.11
12781;BME280;6454;43.304;24.344;2023-02-16T00:13:16;101807.56;;;-0.74;82.30
12781;BME280;6454;43.304;24.344;2023-02-16T00:16:03;101805.94;;;-0.75;82.67
12781;BME280;6454;43.304;24.344;2023-02-16T00:18:30;101804.59;;;-0.79;82.78
12781;BME280;6454;43.304;24.344;2023-02-16T00:20:56;101807.44;;;-0.81;82.52
12781;BME280;6454;43.304;24.344;2023-02-16T00:23:23;101809.59;;;-0.84;82.41
12781;BME280;6454;43.304;24.344;2023-02-16T00:25:50;101806.94;;;-0.84;82.48
12781;BME280;6454;43.304;24.344;2023-02-16T00:28:19;101809.78;;;-0.86;82.72
12781;BME280;6454;43.304;24.344;2023-02-16T00:30:46;101802.66;;;-0.93;83.39
12781;BME280;6454;43.304;24.344;2023-02-16T00:33:16;101798.97;;;-0.92;82.45
12781;BME280;6454;43.304;24.344;2023-02-16T00:35:43;101801.50;;;-0.99;82.59
12781;BME280;6454;43.304;24.344;2023-02-16T00:38:10;101798.19;;;-1.01;82.72
12781;BME280;6454;43.304;24.344;2023-02-16T00:40:37;101801.50;;;-0.99;82.94
12781;BME280;6454;43.304;24.344;2023-02-16T00:43:04;101563.84;;;-2.41;82.42
12781;BME280;6454;43.304;24.344;2023-02-16T00:45:35;101799.16;;;-1.02;82.83
12781;BME280;6454;43.304;24.344;2023-02-16T00:48:03;101710.97;;;-1.62;82.85
12781;BME280;6454;43.304;24.344;2023-02-16T00:50:31;101798.38;;;-1.02;82.58
12781;BME280;6454;43.304;24.344;2023-02-16T00:52:59;101725.97;;;-1.85;82.13
12781;BME280;6454;43.304;24.344;2023-02-16T00:55:28;101774.44;;;-1.35;81.90
12781;BME280;6454;43.304;24.344;2023-02-16T00:58:02;101796.38;;;-1.16;82.36
12781;BME280;6454;43.304;24.344;2023-02-16T01:00:34;101796.25;;;-1.23;82.68
12781;BME280;6454;43.304;24.344;2023-02-16T01:03:05;101790.09;;;-1.32;83.40
12781;BME280;6454;43.304;24.344;2023-02-16T01:05:32;101787.94;;;-1.28;83.18
12781;BME280;6454;43.304;24.344;2023-02-16T01:07:59;101791.09;;;-1.33;83.21
12781;BME280;6454;43.304;24.344;2023-02-16T01:10:44;101731.94;;;-1.83;82.99
12781;BME280;6454;43.304;24.344;2023-02-16T01:13:28;101672.13;;;-2.03;83.21
12781;BME280;6454;43.304;24.344;2023-02-16T01:15:58;101786.97;;;-1.43;83.65
12781;BME280;6454;43.304;24.344;2023-02-16T01:18:25;101780.78;;;-1.36;83.82
12781;BME280;6454;43.304;24.344;2023-02-16T01:20:51;101726.28;;;-1.64;83.24
12781;BME280;6454;43.304;24.344;2023-02-16T01:23:18;101783.13;;;-1.33;83.09
12781;BME280;6454;43.304;24.344;2023-02-16T01:25:45;101779.94;;;-1.36;83.05
12781;BME280;6454;43.304;24.344;2023-02-16T01:28:17;101765.84;;;-1.45;83.76
12781;BME280;6454;43.304;24.344;2023-02-16T01:31:03;101760.47;;;-1.37;83.43
12781;BME280;6454;43.304;24.344;2023-02-16T01:33:31;101766.13;;;-1.40;82.97
12781;BME280;6454;43.304;24.344;2023-02-16T01:35:57;101766.63;;;-1.36;82.73
12781;BME280;6454;43.304;24.344;2023-02-16T01:38:26;101765.34;;;-1.40;82.81
12781;BME280;6454;43.304;24.344;2023-02-16T01:40:59;101764.69;;;-1.42;82.82
12781;BME280;6454;43.304;24.344;2023-02-16T01:43:30;101669.47;;;-2.03;83.64
12781;BME280;6454;43.304;24.344;2023-02-16T01:46:04;101705.69;;;-1.86;82.48
12781;BME280;6454;43.304;24.344;2023-02-16T01:48:35;101760.81;;;-1.40;82.54
12781;BME280;6454;43.304;24.344;2023-02-16T01:51:05;101764.69;;;-1.42;82.54
12781;BME280;6454;43.304;24.344;2023-02-16T01:53:39;101728.78;;;-1.70;82.27
12781;BME280;6454;43.304;24.344;2023-02-16T01:56:14;101702.69;;;-1.83;82.57
12781;BME280;6454;43.304;24.344;2023-02-16T01:58:47;101770.00;;;-1.50;83.66
12781;BME280;6454;43.304;24.344;2023-02-16T02:01:37;101768.00;;;-1.48;83.09
12781;BME280;6454;43.304;24.344;2023-02-16T02:04:20;101768.19;;;-1.50;82.92
12781;BME280;6454;43.304;24.344;2023-02-16T02:07:10;101763.00;;;-1.59;82.59
12781;BME280;6454;43.304;24.344;2023-02-16T02:09:44;101691.91;;;-2.14;83.32
12781;BME280;6454;43.304;24.344;2023-02-16T02:12:20;101690.59;;;-2.10;83.37
12781;BME280;6454;43.304;24.344;2023-02-16T02:14:51;101675.13;;;-2.14;82.57
12781;BME280;6454;43.304;24.344;2023-02-16T02:17:20;101734.47;;;-1.89;83.15
12781;BME280;6454;43.304;24.344;2023-02-16T02:19:54;101751.22;;;-1.73;83.31
12781;BME280;6454;43.304;24.344;2023-02-16T02:22:43;101749.41;;;-1.72;83.40
12781;BME280;6454;43.304;24.344;2023-02-16T02:25:53;101675.28;;;-2.16;83.16
12781;BME280;6454;43.304;24.344;2023-02-16T02:28:35;101746.91;;;-1.66;83.11
12781;BME280;6454;43.304;24.344;2023-02-16T02:31:08;101747.06;;;-1.67;83.34
12781;BME280;6454;43.304;24.344;2023-02-16T02:33:46;101758.69;;;-1.68;83.40
12781;BME280;6454;43.304;24.344;2023-02-16T02:36:23;101754.22;;;-1.68;84.37
12781;BME280;6454;43.304;24.344;2023-02-16T02:39:01;101749.03;;;-1.53;84.43
12781;BME280;6454;43.304;24.344;2023-02-16T02:41:34;101748.53;;;-1.49;83.51
12781;BME280;6454;43.304;24.344;2023-02-16T02:44:23;101753.53;;;-1.54;82.51
12781;BME280;6454;43.304;24.344;2023-02-16T02:46:52;101755.22;;;-1.61;82.51
12781;BME280;6454;43.304;24.344;2023-02-16T02:49:20;101749.38;;;-1.64;83.26
12781;BME280;6454;43.304;24.344;2023-02-16T02:51:47;101751.56;;;-1.60;83.41
12781;BME280;6454;43.304;24.344;2023-02-16T02:54:17;101737.28;;;-1.75;82.78
12781;BME280;6454;43.304;24.344;2023-02-16T02:57:16;101755.22;;;-1.61;82.65
12781;BME280;6454;43.304;24.344;2023-02-16T03:00:05;101698.38;;;-2.08;82.79
12781;BME280;6454;43.304;24.344;2023-02-16T03:02:54;101753.06;;;-1.73;83.71
12781;BME280;6454;43.304;24.344;2023-02-16T03:05:24;101686.75;;;-2.15;82.89
12781;BME280;6454;43.304;24.344;2023-02-16T03:07:56;101751.22;;;-1.73;82.90
12781;BME280;6454;43.304;24.344;2023-02-16T03:10:41;101708.00;;;-1.99;83.58
12781;BME280;6454;43.304;24.344;2023-02-16T03:13:30;101752.22;;;-1.74;83.35
12781;BME280;6454;43.304;24.344;2023-02-16T03:16:04;101287.75;;;-4.67;83.51
12781;BME280;6454;43.304;24.344;2023-02-16T03:18:34;101755.72;;;-1.73;83.23
12781;BME280;6454;43.304;24.344;2023-02-16T03:21:20;101736.25;;;-1.82;82.72
12781;BME280;6454;43.304;24.344;2023-02-16T03:24:07;101664.50;;;-2.30;82.72
12781;BME280;6454;43.304;24.344;2023-02-16T03:26:53;101749.22;;;-1.79;83.22
12781;BME280;6454;43.304;24.344;2023-02-16T03:29:38;101718.81;;;-2.01;83.82
12781;BME280;6454;43.304;24.344;2023-02-16T03:32:07;101762.53;;;-1.79;83.35
12781;BME280;6454;43.304;24.344;2023-02-16T03:34:34;101758.38;;;-1.81;83.73
12781;BME280;6454;43.304;24.344;2023-02-16T03:37:02;101698.38;;;-2.24;83.71
12781;BME280;6454;43.304;24.344;2023-02-16T03:39:31;101722.66;;;-2.03;84.06
12781;BME280;6454;43.304;24.344;2023-02-16T03:42:19;101752.56;;;-1.85;84.92
12781;BME280;6454;43.304;24.344;2023-02-16T03:44:47;101755.56;;;-1.80;83.91
12781;BME280;6454;43.304;24.344;2023-02-16T03:47:15;101754.88;;;-1.82;83.00
12781;BME280;6454;43.304;24.344;2023-02-16T03:49:42;101681.09;;;-2.28;83.83
12781;BME280;6454;43.304;24.344;2023-02-16T03:52:09;101754.06;;;-1.90;84.50
12781;BME280;6454;43.304;24.344;2023-02-16T03:54:36;101752.06;;;-1.88;85.11
12781;BME280;6454;43.304;24.344;2023-02-16T03:57:03;101344.97;;;-4.66;85.10
12781;BME280;6454;43.304;24.344;2023-02-16T03:59:29;101640.25;;;-2.59;85.62
12781;BME280;6454;43.304;24.344;2023-02-16T04:01:56;101753.22;;;-1.83;86.03
12781;BME280;6454;43.304;24.344;2023-02-16T04:04:25;101719.50;;;-1.90;85.90
12781;BME280;6454;43.304;24.344;2023-02-16T04:06:51;101751.06;;;-1.79;85.63
12781;BME280;6454;43.304;24.344;2023-02-16T04:09:18;101746.91;;;-1.58;86.29
12781;BME280;6454;43.304;24.344;2023-02-16T04:11:45;101705.00;;;-1.72;86.86
12781;BME280;6454;43.304;24.344;2023-02-16T04:14:29;101746.19;;;-1.44;85.92
12781;BME280;6454;43.304;24.344;2023-02-16T04:16:56;101749.34;;;-1.40;85.24
12781;BME280;6454;43.304;24.344;2023-02-16T04:19:24;101544.44;;;-2.74;84.92
12781;BME280;6454;43.304;24.344;2023-02-16T04:21:51;101604.38;;;-2.39;85.58
12781;BME280;6454;43.304;24.344;2023-02-16T04:24:18;101566.84;;;-2.69;85.27
12781;BME280;6454;43.304;24.344;2023-02-16T04:26:45;101744.69;;;-1.38;84.49
12781;BME280;6454;43.304;24.344;2023-02-16T04:29:14;101767.47;;;-1.36;83.63
12781;BME280;6454;43.304;24.344;2023-02-16T04:31:40;101420.66;;;-3.56;83.65
12781;BME280;6454;43.304;24.344;2023-02-16T04:34:07;101787.63;;;-1.49;84.18
12781;BME280;6454;43.304;24.344;2023-02-16T04:36:35;101688.88;;;-1.78;84.25
12781;BME280;6454;43.304;24.344;2023-02-16T04:39:03;101744.69;;;-1.38;83.54
12781;BME280;6454;43.304;24.344;2023-02-16T04:41:29;101737.22;;;-1.43;83.47
12781;BME280;6454;43.304;24.344;2023-02-16T04:43:56;101765.19;;;-1.55;83.61
12781;BME280;6454;43.304;24.344;2023-02-16T04:46:23;101735.53;;;-1.44;83.61
12781;BME280;6454;43.304;24.344;2023-02-16T04:48:50;101704.00;;;-1.71;84.09
12781;BME280;6454;43.304;24.344;2023-02-16T04:51:17;101457.50;;;-3.12;83.42
12781;BME280;6454;43.304;24.344;2023-02-16T04:53:45;101743.03;;;-1.39;82.42
12781;BME280;6454;43.304;24.344;2023-02-16T04:56:13;101741.88;;;-1.45;82.30
12781;BME280;6454;43.304;24.344;2023-02-16T04:58:40;101651.19;;;-2.06;82.59
12781;BME280;6454;43.304;24.344;2023-02-16T05:01:07;101756.53;;;-1.57;83.24
12781;BME280;6454;43.304;24.344;2023-02-16T05:03:34;101750.38;;;-1.57;83.31
12781;BME280;6454;43.304;24.344;2023-02-16T05:06:01;101659.84;;;-2.12;83.40
12781;BME280;6454;43.304;24.344;2023-02-16T05:08:28;101757.53;;;-1.58;82.64
12781;BME280;6454;43.304;24.344;2023-02-16T05:10:56;101753.06;;;-1.57;82.46
12781;BME280;6454;43.304;24.344;2023-02-16T05:13:40;101756.38;;;-1.71;82.89
12781;BME280;6454;43.304;24.344;2023-02-16T05:16:24;101753.38;;;-1.68;83.34
12781;BME280;6454;43.304;24.344;2023-02-16T05:18:51;101727.63;;;-1.84;82.93
12781;BME280;6454;43.304;24.344;2023-02-16T05:21:18;101683.09;;;-2.14;82.86
12781;BME280;6454;43.304;24.344;2023-02-16T05:23:58;101690.72;;;-2.19;83.05
12781;BME280;6454;43.304;24.344;2023-02-16T05:26:27;101755.38;;;-1.78;83.17
12781;BME280;6454;43.304;24.344;2023-02-16T05:28:55;101751.22;;;-1.89;84.13
12781;BME280;6454;43.304;24.344;2023-02-16T05:31:23;101760.19;;;-1.74;83.35
12781;BME280;6454;43.304;24.344;2023-02-16T05:33:50;101755.91;;;-1.75;83.11
12781;BME280;6454;43.304;24.344;2023-02-16T05:36:17;101757.22;;;-1.79;82.84
12781;BME280;6454;43.304;24.344;2023-02-16T05:38:44;101754.53;;;-1.79;83.21
12781;BME280;6454;43.304;24.344;2023-02-16T05:41:11;101782.81;;;-1.86;84.07
12781;BME280;6454;43.304;24.344;2023-02-16T05:43:50;101616.31;;;-2.68;84.64
12781;BME280;6454;43.304;24.344;2023-02-16T05:46:17;101763.84;;;-1.67;84.31
12781;BME280;6454;43.304;24.344;2023-02-16T05:48:43;101762.03;;;-1.66;83.57
12781;BME280;6454;43.304;24.344;2023-02-16T05:51:10;101764.88;;;-1.68;84.86
12781;BME280;6454;43.304;24.344;2023-02-16T05:53:37;101688.91;;;-2.11;85.37
12781;BME280;6454;43.304;24.344;2023-02-16T05:56:04;101770.16;;;-1.52;86.66
12781;BME280;6454;43.304;24.344;2023-02-16T05:58:32;101596.06;;;-2.61;86.58
12781;BME280;6454;43.304;24.344;2023-02-16T06:01:00;101777.09;;;-1.26;88.05
12781;BME280;6454;43.304;24.344;2023-02-16T06:03:27;101777.91;;;-1.10;87.82
12781;BME280;6454;43.304;24.344;2023-02-16T06:05:55;101785.72;;;-1.08;87.40
12781;BME280;6454;43.304;24.344;2023-02-16T06:08:23;101530.84;;;-2.87;87.81
12781;BME280;6454;43.304;24.344;2023-02-16T06:10:51;101710.88;;;-1.30;86.97
12781;BME280;6454;43.304;24.344;2023-02-16T06:13:18;101781.09;;;-0.76;86.66
12781;BME280;6454;43.304;24.344;2023-02-16T06:15:46;101780.28;;;-0.76;86.99
12781;BME280;6454;43.304;24.344;2023-02-16T06:18:14;101783.53;;;-0.58;87.22
12781;BME280;6454;43.304;24.344;2023-02-16T06:20:41;101779.47;;;-0.46;87.27
12781;BME280;6454;43.304;24.344;2023-02-16T06:23:10;101675.72;;;-1.56;86.86
12781;BME280;6454;43.304;24.344;2023-02-16T06:25:40;101781.72;;;-0.35;87.43
12781;BME280;6454;43.304;24.344;2023-02-16T06:28:08;101545.34;;;-1.64;87.64
12781;BME280;6454;43.304;24.344;2023-02-16T06:30:35;101791.97;;;-0.16;87.75
12781;BME280;6454;43.304;24.344;2023-02-16T06:33:02;101781.75;;;-0.12;88.92
12781;BME280;6454;43.304;24.344;2023-02-16T06:35:30;101788.28;;;0.08;89.51
12781;BME280;6454;43.304;24.344;2023-02-16T06:37:57;101790.94;;;0.08;90.04
12781;BME280;6454;43.304;24.344;2023-02-16T06:40:24;101792.19;;;0.20;91.00
12781;BME280;6454;43.304;24.344;2023-02-16T06:42:51;101801.00;;;0.43;90.63
12781;BME280;6454;43.304;24.344;2023-02-16T06:45:18;101629.16;;;-0.45;90.64
12781;BME280;6454;43.304;24.344;2023-02-16T06:47:45;101795.44;;;0.68;91.32
12781;BME280;6454;43.304;24.344;2023-02-16T06:50:12;101339.91;;;-1.97;91.00
12781;BME280;6454;43.304;24.344;2023-02-16T06:52:40;101796.69;;;0.94;90.92
12781;BME280;6454;43.304;24.344;2023-02-16T06:55:07;101785.25;;;1.00;90.38
12781;BME280;6454;43.304;24.344;2023-02-16T06:57:34;101583.31;;;-0.03;89.78
12781;BME280;6454;43.304;24.344;2023-02-16T07:00:02;101605.38;;;0.20;89.42
12781;BME280;6454;43.304;24.344;2023-02-16T07:02:30;101785.78;;;1.40;89.20
12781;BME280;6454;43.304;24.344;2023-02-16T07:04:57;101787.72;;;1.46;89.06
12781;BME280;6454;43.304;24.344;2023-02-16T07:07:24;101781.13;;;1.63;88.73
12781;BME280;6454;43.304;24.344;2023-02-16T07:09:52;101781.66;;;1.73;88.00
12781;BME280;6454;43.304;24.344;2023-02-16T07:12:19;101716.56;;;1.30;88.11
12781;BME280;6454;43.304;24.344;2023-02-16T07:14:46;101786.56;;;1.90;87.76
12781;BME280;6454;43.304;24.344;2023-02-16T07:17:13;101773.91;;;1.99;86.85
12781;BME280;6454;43.304;24.344;2023-02-16T07:19:40;101774.16;;;2.04;86.94
12781;BME280;6454;43.304;24.344;2023-02-16T07:22:07;101766.06;;;1.76;86.28
12781;BME280;6454;43.304;24.344;2023-02-16T07:24:34;101772.63;;;2.16;85.56
12781;BME280;6454;43.304;24.344;2023-02-16T07:27:02;101774.16;;;2.25;85.75
12781;BME280;6454;43.304;24.344;2023-02-16T07:29:30;101774.22;;;2.32;85.76
12781;BME280;6454;43.304;24.344;2023-02-16T07:31:56;101775.16;;;2.45;84.81
12781;BME280;6454;43.304;24.344;2023-02-16T07:34:23;101586.03;;;1.34;84.00
12781;BME280;6454;43.304;24.344;2023-02-16T07:36:50;101485.22;;;0.64;84.01
12781;BME280;6454;43.304;24.344;2023-02-16T07:39:17;101627.81;;;1.62;83.76
12781;BME280;6454;43.304;24.344;2023-02-16T07:41:44;101603.47;;;1.51;83.63
12781;BME280;6454;43.304;24.344;2023-02-16T07:44:12;101665.09;;;2.13;83.39
12781;BME280;6454;43.304;24.344;2023-02-16T07:46:39;101721.06;;;2.56;83.57
12781;BME280;6454;43.304;24.344;2023-02-16T07:49:06;101754.44;;;2.88;83.39
12781;BME280;6454;43.304;24.344;2023-02-16T07:51:33;101724.91;;;2.82;82.85
12781;BME280;6454;43.304;24.344;2023-02-16T07:54:00;101741.06;;;2.95;82.74
12781;BME280;6454;43.304;24.344;2023-02-16T07:56:30;101761.81;;;3.14;82.62
12781;BME280;6454;43.304;24.344;2023-02-16T07:58:58;101492.59;;;1.25;82.21
12781;BME280;6454;43.304;24.344;2023-02-16T08:01:28;101759.22;;;3.34;82.67
12781;BME280;6454;43.304;24.344;2023-02-16T08:03:56;101752.41;;;3.31;82.84
12781;BME280;6454;43.304;24.344;2023-02-16T08:06:23;101767.34;;;3.53;82.63
12781;BME280;6454;43.304;24.344;2023-02-16T08:08:50;101752.31;;;3.59;82.89
12781;BME280;6454;43.304;24.344;2023-02-16T08:11:19;101752.13;;;3.73;82.70
12781;BME280;6454;43.304;24.344;2023-02-16T08:13:46;101624.84;;;3.09;82.32
12781;BME280;6454;43.304;24.344;2023-02-16T08:16:15;101671.56;;;3.41;82.07
12781;BME280;6454;43.304;24.344;2023-02-16T08:18:44;101752.59;;;4.10;82.40
12781;BME280;6454;43.304;24.344;2023-02-16T08:21:14;101756.31;;;4.22;82.52
12781;BME280;6454;43.304;24.344;2023-02-16T08:23:42;101702.81;;;3.94;81.46
12781;BME280;6454;43.304;24.344;2023-02-16T08:26:12;101751.78;;;4.42;81.39
12781;BME280;6454;43.304;24.344;2023-02-16T08:28:41;101747.66;;;4.59;81.34
12781;BME280;6454;43.304;24.344;2023-02-16T08:31:10;101752.81;;;4.67;80.72
12781;BME280;6454;43.304;24.344;2023-02-16T08:33:38;101743.09;;;4.73;79.86
12781;BME280;6454;43.304;24.344;2023-02-16T08:36:07;101739.16;;;4.88;79.82
12781;BME280;6454;43.304;24.344;2023-02-16T08:38:41;101740.16;;;5.00;79.52
12781;BME280;6454;43.304;24.344;2023-02-16T08:41:08;101731.63;;;5.10;78.94
12781;BME280;6454;43.304;24.344;2023-02-16T08:43:35;101736.56;;;5.19;78.48
12781;BME280;6454;43.304;24.344;2023-02-16T08:46:02;101740.84;;;5.34;78.62
12781;BME280;6454;43.304;24.344;2023-02-16T08:48:28;101741.19;;;5.50;77.62
12781;BME280;6454;43.304;24.344;2023-02-16T08:50:59;101733.09;;;5.57;77.55
12781;BME280;6454;43.304;24.344;2023-02-16T08:53:28;101729.72;;;5.68;77.42
12781;BME280;6454;43.304;24.344;2023-02-16T08:55:59;101736.44;;;5.90;76.82
12781;BME280;6454;43.304;24.344;2023-02-16T08:58:27;101737.00;;;5.99;76.61
12781;BME280;6454;43.304;24.344;2023-02-16T09:00:54;101732.97;;;6.14;75.94
12781;BME280;6454;43.304;24.344;2023-02-16T09:03:22;101739.28;;;6.26;75.37
12781;BME280;6454;43.304;24.344;2023-02-16T09:05:50;101735.28;;;6.35;75.30
12781;BME280;6454;43.304;24.344;2023-02-16T09:08:19;101746.72;;;6.56;74.82
12781;BME280;6454;43.304;24.344;2023-02-16T09:10:47;101746.44;;;6.64;74.10
12781;BME280;6454;43.304;24.344;2023-02-16T09:13:14;101736.56;;;6.76;73.54
12781;BME280;6454;43.304;24.344;2023-02-16T09:15:41;101742.25;;;6.86;72.53
12781;BME280;6454;43.304;24.344;2023-02-16T09:18:08;101639.47;;;6.39;72.54
12781;BME280;6454;43.304;24.344;2023-02-16T09:20:36;101733.00;;;7.00;72.15
12781;BME280;6454;43.304;24.344;2023-02-16T09:23:04;101734.59;;;7.07;71.28
12781;BME280;6454;43.304;24.344;2023-02-16T09:25:33;101724.88;;;7.18;70.04
12781;BME280;6454;43.304;24.344;2023-02-16T09:28:02;101732.63;;;7.33;70.43
12781;BME280;6454;43.304;24.344;2023-02-16T09:30:29;101726.44;;;7.44;69.66
12781;BME280;6454;43.304;24.344;2023-02-16T09:32:57;101720.50;;;7.53;69.15
12781;BME280;6454;43.304;24.344;2023-02-16T09:35:24;101665.44;;;7.25;67.85
12781;BME280;6454;43.304;24.344;2023-02-16T09:37:51;101715.81;;;7.60;68.36
12781;BME280;6454;43.304;24.344;2023-02-16T09:40:18;101716.72;;;7.72;67.49
12781;BME280;6454;43.304;24.344;2023-02-16T09:42:56;101715.56;;;7.80;67.25
12781;BME280;6454;43.304;24.344;2023-02-16T09:45:29;101712.66;;;7.93;66.57
12781;BME280;6454;43.304;24.344;2023-02-16T09:47:59;101716.69;;;8.02;66.14
12781;BME280;6454;43.304;24.344;2023-02-16T09:50:28;101711.06;;;8.15;66.34
12781;BME280;6454;43.304;24.344;2023-02-16T09:52:57;101707.19;;;8.23;66.20
12781;BME280;6454;43.304;24.344;2023-02-16T09:55:40;101693.38;;;8.31;65.45
12781;BME280;6454;43.304;24.344;2023-02-16T09:58:14;101692.19;;;8.38;65.68
12781;BME280;6454;43.304;24.344;2023-02-16T10:00:48;101698.69;;;8.49;65.27
12781;BME280;6454;43.304;24.344;2023-02-16T10:03:39;101695.25;;;8.54;64.55
12781;BME280;6454;43.304;24.344;2023-02-16T10:06:28;101685.97;;;8.61;64.03
12781;BME280;6454;43.304;24.344;2023-02-16T10:08:58;101695.03;;;8.67;63.47
12781;BME280;6454;43.304;24.344;2023-02-16T10:11:32;101666.69;;;8.69;62.53
12781;BME280;6454;43.304;24.344;2023-02-16T10:14:10;101679.97;;;8.82;62.25
12781;BME280;6454;43.304;24.344;2023-02-16T10:16:43;101686.06;;;8.89;62.47
12781;BME280;6454;43.304;24.344;2023-02-16T10:19:18;101670.53;;;8.96;62.73
12781;BME280;6454;43.304;24.344;2023-02-16T10:21:50;101668.50;;;9.03;61.70
12781;BME280;6454;43.304;24.344;2023-02-16T10:24:19;101669.44;;;9.09;60.99
12781;BME280;6454;43.304;24.344;2023-02-16T10:26:50;101671.41;;;9.14;61.19
12781;BME280;6454;43.304;24.344;2023-02-16T10:29:21;101667.59;;;9.26;61.88
12781;BME280;6454;43.304;24.344;2023-02-16T10:31:59;101656.06;;;9.31;61.80
12781;BME280;6454;43.304;24.344;2023-02-16T10:34:42;101651.66;;;9.41;61.96
12781;BME280;6454;43.304;24.344;2023-02-16T10:37:20;101632.59;;;9.36;60.77
12781;BME280;6454;43.304;24.344;2023-02-16T10:39:59;101650.53;;;9.54;60.50
12781;BME280;6454;43.304;24.344;2023-02-16T10:42:33;101642.25;;;9.60;59.93
12781;BME280;6454;43.304;24.344;2023-02-16T10:45:10;101643.50;;;9.69;60.11
12781;BME280;6454;43.304;24.344;2023-02-16T10:47:45;101642.91;;;9.67;59.23
12781;BME280;6454;43.304;24.344;2023-02-16T10:50:20;101629.06;;;9.64;59.04
12781;BME280;6454;43.304;24.344;2023-02-16T10:52:48;101632.03;;;9.79;58.96
12781;BME280;6454;43.304;24.344;2023-02-16T10:55:16;101628.31;;;9.85;59.08
12781;BME280;6454;43.304;24.344;2023-02-16T10:57:50;101634.72;;;9.79;58.79
12781;BME280;6454;43.304;24.344;2023-02-16T11:00:22;101629.56;;;9.94;58.96
12781;BME280;6454;43.304;24.344;2023-02-16T11:02:50;101629.75;;;10.04;58.60
12781;BME280;6454;43.304;24.344;2023-02-16T11:05:34;101627.25;;;10.03;57.81
12781;BME280;6454;43.304;24.344;2023-02-16T11:08:03;101618.38;;;10.07;57.72
12781;BME280;6454;43.304;24.344;2023-02-16T11:10:37;101613.16;;;10.17;57.28
12781;BME280;6454;43.304;24.344;2023-02-16T11:13:05;101582.00;;;10.03;56.84
12781;BME280;6454;43.304;24.344;2023-02-16T11:15:35;101608.69;;;10.28;56.72
12781;BME280;6454;43.304;24.344;2023-02-16T11:18:07;101607.78;;;10.22;56.61
12781;BME280;6454;43.304;24.344;2023-02-16T11:20:49;101607.38;;;10.30;56.16
12781;BME280;6454;43.304;24.344;2023-02-16T11:23:21;101588.88;;;10.27;56.37
12781;BME280;6454;43.304;24.344;2023-02-16T11:25:54;101595.53;;;10.37;56.88
12781;BME280;6454;43.304;24.344;2023-02-16T11:28:27;101589.59;;;10.40;57.44
12781;BME280;6454;43.304;24.344;2023-02-16T11:31:10;101587.22;;;10.43;57.29
12781;BME280;6454;43.304;24.344;2023-02-16T11:33:40;101577.63;;;10.35;56.81
12781;BME280;6454;43.304;24.344;2023-02-16T11:36:20;101581.28;;;10.46;56.24
12781;BME280;6454;43.304;24.344;2023-02-16T11:38:59;101587.69;;;10.57;56.94
12781;BME280;6454;43.304;24.344;2023-02-16T11:41:27;101572.47;;;10.56;56.63
12781;BME280;6454;43.304;24.344;2023-02-16T11:43:54;101580.19;;;10.64;56.13
12781;BME280;6454;43.304;24.344;2023-02-16T11:46:22;101570.22;;;10.69;55.55
12781;BME280;6454;43.304;24.344;2023-02-16T11:48:51;101556.88;;;10.68;55.34
12781;BME280;6454;43.304;24.344;2023-02-16T11:51:33;101562.69;;;10.76;55.69
12781;BME280;6454;43.304;24.344;2023-02-16T11:54:03;101558.59;;;10.74;54.77
12781;BME280;6454;43.304;24.344;2023-02-16T11:56:32;101546.97;;;10.78;55.42
12781;BME280;6454;43.304;24.344;2023-02-16T11:59:12;101543.44;;;10.78;55.31
12781;BME280;6454;43.304;24.344;2023-02-16T12:01:56;101545.31;;;10.77;54.76
12781;BME280;6454;43.304;24.344;2023-02-16T12:04:41;101532.41;;;10.89;55.11
12781;BME280;6454;43.304;24.344;2023-02-16T12:07:17;101533.41;;;11.05;54.90
12781;BME280;6454;43.304;24.344;2023-02-16T12:09:53;101531.84;;;11.09;54.48
12781;BME280;6454;43.304;24.344;2023-02-16T12:12:32;101521.53;;;11.11;54.05
12781;BME280;6454;43.304;24.344;2023-02-16T12:15:16;101520.72;;;11.11;53.21
12781;BME280;6454;43.304;24.344;2023-02-16T12:18:11;101517.78;;;11.17;53.54
12781;BME280;6454;43.304;24.344;2023-02-16T12:20:50;101510.78;;;11.21;53.29
12781;BME280;6454;43.304;24.344;2023-02-16T12:23:36;101464.66;;;10.99;52.66
12781;BME280;6454;43.304;24.344;2023-02-16T12:26:18;101507.56;;;11.29;52.77
12781;BME280;6454;43.304;24.344;2023-02-16T12:28:54;101501.63;;;11.32;52.93
12781;BME280;6454;43.304;24.344;2023-02-16T12:31:27;101496.22;;;11.37;53.04
12781;BME280;6454;43.304;24.344;2023-02-16T12:34:13;101492.91;;;11.30;51.98
12781;BME280;6454;43.304;24.344;2023-02-16T12:36:50;101500.28;;;11.35;51.95
12781;BME280;6454;43.304;24.344;2023-02-16T12:39:27;101489.69;;;11.33;51.21
12781;BME280;6454;43.304;24.344;2023-02-16T12:42:10;101495.16;;;11.38;50.71
12781;BME280;6454;43.304;24.344;2023-02-16T12:44:45;101479.47;;;11.45;50.47
12781;BME280;6454;43.304;24.344;2023-02-16T12:47:27;101480.38;;;11.56;50.52
12781;BME280;6454;43.304;24.344;2023-02-16T12:49:58;101481.19;;;11.56;50.58
12781;BME280;6454;43.304;24.344;2023-02-16T12:52:34;101473.84;;;11.57;49.48
12781;BME280;6454;43.304;24.344;2023-02-16T12:55:15;101479.03;;;11.58;50.00
12781;BME280;6454;43.304;24.344;2023-02-16T12:57:50;101469.72;;;11.54;49.91
12781;BME280;6454;43.304;24.344;2023-02-16T13:00:22;101448.00;;;11.54;50.32
12781;BME280;6454;43.304;24.344;2023-02-16T13:02:54;101454.66;;;11.69;49.32
12781;BME280;6454;43.304;24.344;2023-02-16T13:05:25;101455.22;;;11.71;49.43
12781;BME280;6454;43.304;24.344;2023-02-16T13:08:05;101464.25;;;11.81;49.49
12781;BME280;6454;43.304;24.344;2023-02-16T13:10:41;101448.19;;;11.80;51.10
12781;BME280;6454;43.304;24.344;2023-02-16T13:13:15;101444.44;;;11.86;52.02
12781;BME280;6454;43.304;24.344;2023-02-16T13:15:48;101448.78;;;11.87;51.93